x

Southeast Bering Sea -205nm Wnw Of Dutch Harbor, Ak (46073) Wave Buoy

3:50pm - Sun 22nd Jan 2017 All times are UTC.

  • Sig Wave height 18.4ft
  • Swell Direction
  • Peak Period 9s
  • Average Period 8s
  • Wind
    45mph, 56mph gusts
  • Sea Temp 38°f
  • Sea Pressure 985.8mb

More Historic Weather Station data

Upgrade to MSW Pro to gain access to the past 30 days of data for over 8000 Wavebouys and Weather Stations around the globe.

Join Pro

Comparision Forecast

View Surf forecast
   
Sun 01/22 3:50pm 18.5ft 9s 8s 45 56 mph 985.8mb 38f
2:50pm 15.5ft 9s 7s 43 51 mph 987.7mb 38f
1:50pm 12.5ft 8s 6s 40 51 mph 990.9mb 38f
12:50pm 9.5ft 8s 6s 36 47 mph 993.3mb 38f
11:50am 9ft 7s 6s 36 43 mph 996.1mb 38f
10:50am 7.5ft 6s 5s 31 38 mph 998.7mb 38f
9:50am 6.5ft 6s 5s 31 38 mph 1000.8mb 38f
8:50am 5.5ft 5s 5s 29 36 mph 1002.6mb 38f
7:50am 4.5ft 5s 4s 27 34 mph 1004.2mb 38f
6:50am 4ft 4s 4s 22 29 mph 1005.8mb 38f
5:50am 3.5ft 7s 4s 22 27 mph 1006.8mb 38f
4:50am 3.5ft 7s 5s 18 25 mph 1008.2mb 38f
3:50am 3.5ft 8s 5s 16 20 mph 1009.7mb 38f
2:50am 3.5ft 7s 5s 9 13 mph 1009.9mb 38f
1:50am 3.5ft 8s 6s 11 16 mph 1010.8mb 38f
12:50am 4ft 6s 6s 9 11 mph 1012.2mb 38f
Sat 01/21 11:50pm 4ft 7s 6s 4 9 mph 1012.5mb 38f
10:50pm 4.5ft 8s 6s 9 11 mph 1013.1mb 38f
9:50pm 4.5ft 7s 6s  -  4 mph 1014.2mb 38f
8:50pm 4.5ft 8s 6s 4 7 mph 1014.4mb 38f
7:50pm 4.5ft 8s 6s  -  mph 1015mb 38f
6:50pm 5ft 7s 6s 4 9 mph 1014.8mb 38f
5:50pm 5ft 8s 6s 4 9 mph 1015.1mb 38f
4:50pm 4.5ft 8s 6s 7 11 mph 1015.3mb 38f
3:50pm 5.5ft 8s 6s 4 9 mph 1015.5mb 38f
2:50pm 5.5ft 8s 6s  -  7 mph 1015.8mb 38f
1:50pm 6ft 8s 6s 4 9 mph 1015.8mb 38f
12:50pm 6ft 8s 6s 7 13 mph 1015.8mb 38f
11:50am 7ft 8s 6s 9 13 mph 1016mb 38f
10:50am 7ft 8s 6s 13 18 mph 1016mb 38f
9:50am 7ft 8s 6s 11 16 mph 1016.3mb 38f
8:50am 6.5ft 8s 6s 16 20 mph 1015.8mb 39f
7:50am 7ft 9s 6s 16 22 mph 1016.1mb 39f
6:50am 7ft 9s 6s 16 20 mph 1015.7mb 39f
5:50am 8ft 9s 7s 16 20 mph 1016mb 39f
4:50am 7.5ft 9s 6s 9 13 mph 1015.9mb 39f
3:50am 7ft 8s 6s 22 27 mph 1015.4mb 39f
2:50am 7.5ft 9s 7s 18 25 mph 1015.2mb 39f
1:50am 9ft 9s 7s 18 22 mph 1014.4mb 39f
12:50am 8ft 9s 7s 16 22 mph 1014mb 38f
Fri 01/20 11:50pm 9ft 9s 7s 13 18 mph 1013.8mb 38f
10:50pm 7.5ft 9s 6s 4 11 mph 1014mb 38f
9:50pm 8.5ft 9s 7s 13 18 mph 1013.3mb 38f
8:50pm 8ft 10s 6s 16 20 mph 1012.7mb 39f
7:50pm 9ft 10s 7s 20 29 mph 1012.1mb 39f
6:50pm 8.5ft 10s 6s 20 25 mph 1011.4mb 39f
5:50pm 9ft 10s 6s 20 27 mph 1010.5mb 39f
4:50pm 9.5ft 10s 7s 16 25 mph 1010mb 39f
3:50pm 9ft 11s 7s 18 25 mph 1009.3mb 39f
2:50pm 10ft 11s 7s 20 25 mph 1008.5mb 39f
1:50pm 11ft 11s 7s 20 25 mph 1008mb 39f
12:50pm 11ft 11s 7s 20 25 mph 1007.5mb 39f
11:50am 11.5ft 11s 7s 25 31 mph 1006.8mb 39f
10:50am 12.5ft 11s 8s 20 25 mph 1006.4mb 39f
9:50am 12ft 11s 8s 18 29 mph 1005.2mb 39f
8:50am 13ft 11s 8s 22 31 mph 1004.4mb 39f
7:50am 13ft 11s 8s 20 27 mph 1003.8mb 39f
6:50am 13.5ft 11s 8s 18 25 mph 1002.7mb 39f
5:50am 13.5ft 11s 8s 25 29 mph 1001.7mb 39f
4:50am 15ft 11s 8s 25 31 mph 1000.8mb 39f
3:50am 13.5ft 12s 8s 29 34 mph 999.6mb 39f
2:50am 13ft 10s 8s 31 40 mph 998.6mb 39f
1:50am 12.5ft 11s 7s 27 34 mph 997.6mb 39f
12:50am 13ft 12s 8s 29 38 mph 996.5mb 39f
Thu 01/19 11:50pm 13.5ft 12s 8s 22 34 mph 996mb 39f
10:50pm 13.5ft 12s 8s 27 31 mph 995.4mb 39f
9:50pm 15ft 12s 8s 27 36 mph 994.7mb 39f
8:50pm 15ft 12s 8s 22 27 mph 993.9mb 39f
7:50pm 13.5ft 12s 8s 25 34 mph 993mb 39f
6:50pm 15.5ft 12s 8s 25 31 mph 991.9mb 39f
5:50pm 14.5ft 11s 8s 27 34 mph 991mb 39f
4:50pm 13.5ft 11s 8s 25 31 mph 990mb 39f
3:50pm 14.5ft 11s 8s 27 34 mph 988.9mb 39f
2:50pm 14ft 11s 8s 25 34 mph 988.5mb 39f
1:50pm 13.5ft 10s 7s 27 31 mph 987.6mb 39f
12:50pm 14.5ft 11s 7s 29 36 mph 986.5mb 39f
11:50am 15.5ft 10s 8s 31 38 mph 985.3mb 39f
10:50am 15.5ft 9s 7s 36 43 mph 983.5mb 39f
9:50am 15ft 9s 7s 40 49 mph 981.4mb 39f
8:50am 12.5ft 9s 7s 40 47 mph 978.5mb 39f
7:50am 13ft 11s 7s 27 34 mph 975.7mb 39f
6:50am 13.5ft 8s 7s 27 34 mph 973.8mb 39f
5:50am 13ft 8s 7s 34 40 mph 973.4mb 39f
4:50am 13ft 8s 7s 27 34 mph 973.7mb 39f
3:50am 13ft 8s 7s 29 38 mph 974.2mb 39f
2:50am 15ft 9s 7s 34 40 mph 974.4mb 39f
1:50am 14ft 9s 7s 34 43 mph 975.2mb 39f
12:50am 15ft 10s 7s 36 45 mph 977mb 39f
Wed 01/18 11:50pm 14ft 9s 7s 34 40 mph 978.8mb 39f
10:50pm 16.5ft 8s 7s 34 40 mph 980.1mb 39f
9:50pm 15ft 9s 7s 29 36 mph 981.3mb 39f
8:50pm 15.5ft 10s 8s 31 40 mph 981.7mb 39f
7:50pm 17.5ft 10s 8s 29 36 mph 982mb 39f
6:50pm 17.5ft 9s 8s 27 36 mph 982.4mb 39f
5:50pm 15.5ft 9s 7s 40 51 mph 982.4mb 38f